createdAt,value
2024-02-13T00:00:28.143Z,95925.91
2024-02-13T00:02:55.176Z,95883.59
2024-02-13T00:05:22.202Z,95929.09
2024-02-13T00:07:50.212Z,95929.09
2024-02-13T00:10:17.470Z,95924.38
2024-02-13T00:12:44.374Z,95916.50
2024-02-13T00:15:15.703Z,95809.72
2024-02-13T00:17:44.849Z,95916.50
2024-02-13T00:20:12.175Z,95870.59
2024-02-13T00:22:38.936Z,95918.84
2024-02-13T00:25:07.009Z,95913.31
2024-02-13T00:27:34.901Z,95913.31
2024-02-13T00:30:04.757Z,95919.63
2024-02-13T00:32:33.479Z,95920.44
2024-02-13T00:35:00.645Z,95537.94
2024-02-13T00:37:27.663Z,95905.78
2024-02-13T00:39:55.661Z,95903.78
2024-02-13T00:42:22.578Z,95912.88
2024-02-13T00:44:50.757Z,95922.75
2024-02-13T00:47:19.671Z,95861.84
2024-02-13T00:49:46.857Z,95833.38
2024-02-13T00:52:13.679Z,95906.88
2024-02-13T00:54:40.382Z,95891.03
2024-02-13T00:57:07.294Z,95906.09
2024-02-13T00:59:34.122Z,95858.16
2024-02-13T01:02:00.889Z,95918.66
2024-02-13T01:04:28.372Z,95856.16
2024-02-13T01:06:55.443Z,95867.97
2024-02-13T01:09:22.405Z,95879.06
2024-02-13T01:11:49.679Z,95890.94
2024-02-13T01:14:17.472Z,95909.94
2024-02-13T01:16:44.253Z,95894.88
2024-02-13T01:19:11.078Z,95907.13
2024-02-13T01:21:37.873Z,95913.06
2024-02-13T01:24:05.004Z,95894.06
2024-02-13T01:26:31.798Z,95884.19
2024-02-13T01:28:58.648Z,95918.53
2024-02-13T01:31:25.438Z,95890.00
2024-02-13T01:33:52.231Z,95916.91
2024-02-13T01:36:22.149Z,95918.06
2024-02-13T01:38:49.932Z,95920.00
2024-02-13T01:41:16.985Z,95922.31
2024-02-13T01:43:43.796Z,95921.50
2024-02-13T01:46:12.592Z,95916.75
2024-02-13T01:48:40.521Z,95885.34
2024-02-13T01:51:08.351Z,95915.09
2024-02-13T01:53:37.577Z,95920.59
2024-02-13T01:56:06.315Z,95910.34
2024-02-13T01:58:33.510Z,95922.09
2024-02-13T02:01:01.680Z,95924.47
2024-02-13T02:03:36.689Z,95937.00
2024-02-13T02:06:05.177Z,95835.63
2024-02-13T02:08:32.820Z,95939.28
2024-02-13T02:10:59.912Z,95935.38
2024-02-13T02:13:28.967Z,95924.94
2024-02-13T02:15:56.992Z,95948.66
2024-02-13T02:18:25.742Z,95937.50
2024-02-13T02:20:53.034Z,95849.50
2024-02-13T02:23:20.547Z,95821.75
2024-02-13T02:25:48.408Z,95941.38
2024-02-13T02:28:19.243Z,95948.09
2024-02-13T02:30:47.670Z,95952.13
2024-02-13T02:33:15.504Z,95952.47
2024-02-13T02:35:43.421Z,95952.34
2024-02-13T02:38:17.026Z,95950.69
2024-02-13T02:40:45.249Z,95951.50
2024-02-13T02:43:12.111Z,95947.00
2024-02-13T02:45:38.952Z,95953.00
2024-02-13T02:48:06.507Z,95958.53
2024-02-13T02:50:33.579Z,95962.38
2024-02-13T02:53:00.317Z,95964.53
2024-02-13T02:55:27.008Z,95950.16
2024-02-13T02:57:54.359Z,95972.47
2024-02-13T03:00:22.506Z,95961.69
2024-02-13T03:02:49.733Z,95959.50
2024-02-13T03:05:19.541Z,95914.38
2024-02-13T03:07:47.502Z,95965.16
2024-02-13T03:10:14.774Z,95974.56
2024-02-13T03:12:41.868Z,95903.97
2024-02-13T03:15:08.991Z,95977.75
2024-02-13T03:17:39.169Z,95978.56
2024-02-13T03:20:12.351Z,95973.38
2024-02-13T03:22:39.570Z,95971.84
2024-02-13T03:25:06.808Z,95978.38
2024-02-13T03:27:33.943Z,95972.56
2024-02-13T03:30:00.806Z,95899.13
2024-02-13T03:32:27.777Z,95979.34
2024-02-13T03:34:55.364Z,95977.00
2024-02-13T03:37:22.223Z,95941.31
2024-02-13T03:39:49.231Z,95979.75
2024-02-13T03:42:17.560Z,95978.50
2024-02-13T03:44:45.374Z,95925.31
2024-02-13T03:47:13.128Z,95978.84
2024-02-13T03:49:40.291Z,95975.00
2024-02-13T03:52:07.721Z,95979.03
2024-02-13T03:54:34.450Z,95966.72
2024-02-13T03:57:02.395Z,95976.19
2024-02-13T03:59:32.599Z,95980.09
2024-02-13T04:02:03.485Z,95973.91
2024-02-13T04:04:31.846Z,95927.25
2024-02-13T04:06:58.694Z,95979.06
2024-02-13T04:09:25.470Z,95967.28
2024-02-13T04:11:52.819Z,95968.38
2024-02-13T04:14:19.771Z,95867.00
2024-02-13T04:16:46.604Z,95873.69
2024-02-13T04:19:13.794Z,95918.50
2024-02-13T04:21:40.567Z,95967.50
2024-02-13T04:24:08.504Z,95970.66
2024-02-13T04:26:40.715Z,95976.56
2024-02-13T04:29:08.593Z,95974.53
2024-02-13T04:31:36.425Z,95900.13
2024-02-13T04:34:03.864Z,95899.28
2024-02-13T04:36:32.368Z,95912.66
2024-02-13T04:38:59.603Z,95961.78
2024-02-13T04:41:27.145Z,95982.41
2024-02-13T04:43:55.828Z,95983.69
2024-02-13T04:46:26.670Z,95990.03
2024-02-13T04:48:54.601Z,95998.09
2024-02-13T04:51:21.697Z,95999.59
2024-02-13T04:53:48.589Z,95998.75
2024-02-13T04:56:15.772Z,96008.97
2024-02-13T04:58:43.071Z,96009.69
2024-02-13T05:01:11.572Z,96015.16
2024-02-13T05:03:50.480Z,96009.31
2024-02-13T05:06:36.043Z,95935.13
2024-02-13T05:09:02.994Z,95938.47
2024-02-13T05:11:30.531Z,96023.09
2024-02-13T05:14:01.156Z,96013.03
2024-02-13T05:16:29.035Z,95903.00
2024-02-13T05:18:56.068Z,95955.44
2024-02-13T05:21:22.839Z,96014.19
2024-02-13T05:23:50.494Z,96036.97
2024-02-13T05:26:21.537Z,95995.88
2024-02-13T05:28:50.636Z,96019.69
2024-02-13T05:31:20.398Z,96019.28
2024-02-13T05:33:47.441Z,96029.13
2024-02-13T05:36:14.627Z,96013.34
2024-02-13T05:38:50.660Z,96024.91
2024-02-13T05:41:17.502Z,96017.19
2024-02-13T05:43:44.457Z,96027.53
2024-02-13T05:46:11.175Z,96031.53
2024-02-13T05:48:39.133Z,95970.38
2024-02-13T05:51:06.136Z,96017.69
2024-02-13T05:53:33.510Z,96042.75
2024-02-13T05:56:01.215Z,96046.31
2024-02-13T05:58:29.552Z,95974.53
2024-02-13T06:00:58.797Z,96040.47
2024-02-13T06:03:26.007Z,96012.88
2024-02-13T06:05:56.596Z,95946.31
2024-02-13T06:08:24.856Z,96059.66
2024-02-13T06:10:51.692Z,96043.00
2024-02-13T06:13:18.514Z,96045.25
2024-02-13T06:15:45.515Z,96050.88
2024-02-13T06:18:13.032Z,96053.25
2024-02-13T06:20:40.358Z,96048.56
2024-02-13T06:23:07.815Z,96009.69
2024-02-13T06:25:34.733Z,96053.72
2024-02-13T06:28:01.532Z,95989.16
2024-02-13T06:30:28.357Z,96051.84
2024-02-13T06:32:55.334Z,96055.81
2024-02-13T06:35:22.444Z,96037.59
2024-02-13T06:37:49.428Z,96056.00
2024-02-13T06:40:16.700Z,96019.50
2024-02-13T06:42:43.398Z,96060.81
2024-02-13T06:45:11.637Z,96018.72
2024-02-13T06:47:39.326Z,96074.19
2024-02-13T06:50:13.635Z,95994.88
2024-02-13T06:52:41.984Z,96061.50
2024-02-13T06:55:09.633Z,96032.75
2024-02-13T06:57:37.625Z,95985.72
2024-02-13T07:00:09.845Z,96069.06
2024-02-13T07:02:37.034Z,96076.22
2024-02-13T07:05:05.790Z,96079.88
2024-02-13T07:07:41.893Z,96077.13
2024-02-13T07:10:14.938Z,96020.56
2024-02-13T07:12:42.031Z,96002.72
2024-02-13T07:15:09.803Z,96081.91
2024-02-13T07:17:48.041Z,96050.66
2024-02-13T07:20:23.620Z,96074.03
2024-02-13T07:22:50.691Z,96066.88
2024-02-13T07:25:17.452Z,96057.34
2024-02-13T07:27:44.353Z,96070.88
2024-02-13T07:30:15.916Z,96057.38
2024-02-13T07:32:43.626Z,96077.97
2024-02-13T07:35:11.054Z,96073.25
2024-02-13T07:37:37.832Z,96041.59
2024-02-13T07:40:05.111Z,96001.22
2024-02-13T07:42:31.990Z,96071.25
2024-02-13T07:44:59.952Z,96019.41
2024-02-13T07:47:28.291Z,96072.44
2024-02-13T07:49:56.288Z,96078.72
2024-02-13T07:52:23.443Z,96077.09
2024-02-13T07:54:52.277Z,96074.69
2024-02-13T07:57:19.771Z,96027.91
2024-02-13T07:59:48.105Z,96083.94
2024-02-13T08:02:15.349Z,96081.88
2024-02-13T08:04:42.419Z,95977.50
2024-02-13T08:07:10.598Z,95959.22
2024-02-13T08:09:37.514Z,96084.56
2024-02-13T08:12:08.075Z,96085.72
2024-02-13T08:14:36.402Z,96085.47
2024-02-13T08:17:09.772Z,96063.44
2024-02-13T08:19:37.901Z,96083.03
2024-02-13T08:22:04.768Z,96083.13
2024-02-13T08:24:32.155Z,96086.31
2024-02-13T08:27:00.054Z,96097.41
2024-02-13T08:29:29.085Z,96092.41
2024-02-13T08:31:58.039Z,96099.28
2024-02-13T08:34:25.570Z,96097.31
2024-02-13T08:36:53.573Z,96101.22
2024-02-13T08:39:21.656Z,96025.47
2024-02-13T08:41:48.796Z,96088.97
2024-02-13T08:44:17.898Z,96079.00
2024-02-13T08:46:44.880Z,96092.34
2024-02-13T08:49:13.649Z,96091.84
2024-02-13T08:51:40.899Z,96089.75
2024-02-13T08:54:12.697Z,95977.88
2024-02-13T08:56:40.937Z,96088.28
2024-02-13T08:59:08.981Z,96083.44
2024-02-13T09:01:35.940Z,96068.28
2024-02-13T09:04:02.934Z,96100.31
2024-02-13T09:06:29.858Z,95868.81
2024-02-13T09:08:56.652Z,96064.25
2024-02-13T09:11:25.640Z,96044.00
2024-02-13T09:13:52.852Z,96026.47
2024-02-13T09:16:20.794Z,96024.88
2024-02-13T09:18:48.509Z,96019.00
2024-02-13T09:21:16.727Z,95907.19
2024-02-13T09:23:44.897Z,96094.97
2024-02-13T09:26:11.731Z,96084.84
2024-02-13T09:28:38.600Z,96088.56
2024-02-13T09:31:05.289Z,96038.44
2024-02-13T09:33:32.275Z,96094.31
2024-02-13T09:35:59.213Z,96094.31
2024-02-13T09:38:26.162Z,96068.44
2024-02-13T09:40:52.928Z,96081.78
2024-02-13T09:43:19.907Z,96078.63
2024-02-13T09:45:47.290Z,96080.69
2024-02-13T09:48:22.404Z,96079.44
2024-02-13T09:50:51.747Z,96081.06
2024-02-13T09:53:29.810Z,95981.81
2024-02-13T09:56:00.389Z,96072.34
2024-02-13T09:58:28.056Z,96031.84
2024-02-13T10:00:58.672Z,96077.16
2024-02-13T10:03:28.158Z,96060.28
2024-02-13T10:05:55.456Z,95942.41
2024-02-13T10:08:29.075Z,95996.13
2024-02-13T10:11:04.111Z,96072.19
2024-02-13T10:13:32.553Z,96060.56
2024-02-13T10:15:59.695Z,96071.59
2024-02-13T10:18:26.795Z,95995.00
2024-02-13T10:20:53.878Z,95981.03
2024-02-13T10:23:24.778Z,96075.06
2024-02-13T10:25:52.238Z,96048.06
2024-02-13T10:28:20.808Z,96023.38
2024-02-13T10:30:54.069Z,96055.59
2024-02-13T10:33:21.081Z,96064.75
2024-02-13T10:35:54.388Z,96053.25
2024-02-13T10:38:26.704Z,96034.59
2024-02-13T10:40:58.472Z,96023.34
2024-02-13T10:43:28.417Z,96005.91
2024-02-13T10:45:59.697Z,96066.94
2024-02-13T10:48:44.799Z,96061.63
2024-02-13T10:51:17.295Z,96049.84
2024-02-13T10:53:49.005Z,96059.06
2024-02-13T10:56:16.147Z,96042.91
2024-02-13T10:58:48.077Z,96053.56
2024-02-13T11:01:21.956Z,96067.44
2024-02-13T11:03:51.884Z,96017.19
2024-02-13T11:06:19.172Z,96019.38
2024-02-13T11:08:46.166Z,96047.47
2024-02-13T11:11:17.812Z,96069.22
2024-02-13T11:13:44.809Z,96057.75
2024-02-13T11:16:12.154Z,96047.44
2024-02-13T11:18:49.522Z,95758.94
2024-02-13T11:21:25.792Z,96060.34
2024-02-13T11:23:56.654Z,96012.03
2024-02-13T11:26:26.586Z,96046.50
2024-02-13T11:28:55.174Z,95969.09
2024-02-13T11:31:22.014Z,96115.44
2024-02-13T11:34:05.761Z,96035.63
2024-02-13T11:36:35.810Z,95760.97
2024-02-13T11:39:08.090Z,96036.00
2024-02-13T11:41:35.861Z,96033.50
2024-02-13T11:44:11.022Z,96040.44
2024-02-13T11:46:56.193Z,96036.44
2024-02-13T11:49:26.562Z,96029.13
2024-02-13T11:51:54.256Z,95943.63
2024-02-13T11:54:21.172Z,95866.84
2024-02-13T11:56:48.204Z,95901.72
2024-02-13T11:59:14.903Z,96037.38
2024-02-13T12:01:44.294Z,95990.41
2024-02-13T12:04:14.335Z,95954.69
2024-02-13T12:06:42.591Z,95924.34
2024-02-13T12:09:10.302Z,95976.56
2024-02-13T12:11:38.239Z,96008.97
2024-02-13T12:14:07.283Z,96026.69
2024-02-13T12:16:34.707Z,95774.09
2024-02-13T12:19:03.133Z,95967.88
2024-02-13T12:21:30.278Z,95982.13
2024-02-13T12:24:02.771Z,96016.88
2024-02-13T12:26:31.168Z,95992.59
2024-02-13T12:28:59.893Z,95982.22
2024-02-13T12:31:31.152Z,96022.16
2024-02-13T12:34:08.535Z,96022.16
2024-02-13T12:36:36.273Z,95937.84
2024-02-13T12:39:18.265Z,96022.16
2024-02-13T12:41:46.984Z,96029.63
2024-02-13T12:44:14.593Z,96026.69
2024-02-13T12:46:42.004Z,96023.03
2024-02-13T12:49:11.719Z,95969.97
2024-02-13T12:51:40.732Z,95950.25
2024-02-13T12:54:08.681Z,95988.06
2024-02-13T12:56:35.753Z,95970.69
2024-02-13T12:59:03.351Z,95936.69
2024-02-13T13:01:32.490Z,96064.69
2024-02-13T13:03:59.832Z,96082.16
2024-02-13T13:06:28.151Z,96054.38
2024-02-13T13:08:58.089Z,96067.09
2024-02-13T13:11:25.659Z,95976.88
2024-02-13T13:13:52.449Z,95877.03
2024-02-13T13:16:20.177Z,96032.00
2024-02-13T13:18:47.015Z,96054.69
2024-02-13T13:21:15.456Z,96052.06
2024-02-13T13:23:42.669Z,95969.13
2024-02-13T13:26:10.221Z,96009.94
2024-02-13T13:28:39.349Z,96065.31
2024-02-13T13:31:06.508Z,96070.91
2024-02-13T13:33:35.341Z,96025.78
2024-02-13T13:36:03.760Z,96056.38
2024-02-13T13:38:30.805Z,96050.94
2024-02-13T13:41:02.821Z,96040.66
2024-02-13T13:43:30.772Z,96080.84
2024-02-13T13:45:58.977Z,96044.50
2024-02-13T13:48:28.707Z,96066.63
2024-02-13T13:50:55.785Z,96000.06
2024-02-13T13:53:24.371Z,96067.19
2024-02-13T13:55:51.905Z,96067.69
2024-02-13T13:58:18.660Z,96074.59
2024-02-13T14:00:46.437Z,96065.19
2024-02-13T14:03:15.465Z,96039.63
2024-02-13T14:05:42.577Z,96078.97
2024-02-13T14:08:10.787Z,96081.97
2024-02-13T14:10:41.646Z,96083.22
2024-02-13T14:13:11.846Z,96088.97
2024-02-13T14:15:39.812Z,96085.41
2024-02-13T14:18:10.641Z,96091.81
2024-02-13T14:20:40.601Z,96085.47
2024-02-13T14:23:08.501Z,96086.19
2024-02-13T14:25:38.775Z,96090.19
2024-02-13T14:28:06.978Z,96085.47
2024-02-13T14:30:34.547Z,96079.13
2024-02-13T14:33:03.169Z,96062.59
2024-02-13T14:35:30.091Z,95962.25
2024-02-13T14:37:57.797Z,96079.28
2024-02-13T14:40:26.225Z,96080.50
2024-02-13T14:42:53.409Z,96086.44
2024-02-13T14:45:21.504Z,96005.81
2024-02-13T14:47:49.598Z,96073.09
2024-02-13T14:50:18.624Z,96040.66
2024-02-13T14:52:45.757Z,96095.31
2024-02-13T14:55:15.756Z,96102.47
2024-02-13T14:57:50.832Z,96094.56
2024-02-13T15:00:24.767Z,96095.34
2024-02-13T15:02:54.152Z,96102.06
2024-02-13T15:05:22.971Z,96106.03
2024-02-13T15:07:53.557Z,96098.50
2024-02-13T15:10:20.563Z,96100.09
2024-02-13T15:12:47.426Z,96087.44
2024-02-13T15:15:18.929Z,96087.03
2024-02-13T15:17:47.534Z,96123.09
2024-02-13T15:20:17.455Z,96109.22
2024-02-13T15:22:45.434Z,96055.00
2024-02-13T15:25:12.320Z,96052.63
2024-02-13T15:27:41.552Z,96119.09
2024-02-13T15:30:13.871Z,96069.25
2024-02-13T15:32:44.742Z,96133.38
2024-02-13T15:35:11.900Z,96122.31
2024-02-13T15:37:57.292Z,96129.44
2024-02-13T15:40:42.602Z,96127.47
2024-02-13T15:43:28.076Z,96129.44
2024-02-13T15:46:13.398Z,96134.97
2024-02-13T15:48:40.358Z,96135.78
2024-02-13T15:51:07.614Z,96140.53
2024-02-13T15:53:38.917Z,96151.59
2024-02-13T15:56:07.147Z,96116.75
2024-02-13T15:58:33.920Z,96146.06
2024-02-13T16:01:01.147Z,96155.56
2024-02-13T16:03:28.471Z,96156.34
2024-02-13T16:05:58.285Z,96144.47
2024-02-13T16:08:26.804Z,96174.97
2024-02-13T16:10:53.620Z,96181.69
2024-02-13T16:13:21.972Z,96177.75
2024-02-13T16:15:50.671Z,96178.53
2024-02-13T16:18:17.760Z,96187.25
2024-02-13T16:20:44.819Z,96195.19
2024-02-13T16:23:11.778Z,96200.72
2024-02-13T16:25:38.648Z,96201.53
2024-02-13T16:28:07.089Z,96189.66
2024-02-13T16:30:35.079Z,96074.00
2024-02-13T16:33:02.690Z,96201.53
2024-02-13T16:35:29.778Z,96198.38
2024-02-13T16:37:57.357Z,96215.34
2024-02-13T16:40:26.178Z,96092.13
2024-02-13T16:42:58.538Z,96173.69
2024-02-13T16:45:27.220Z,96229.22
2024-02-13T16:47:54.216Z,96225.25
2024-02-13T16:50:21.370Z,96230.00
2024-02-13T16:52:48.352Z,96235.16
2024-02-13T16:55:16.026Z,96229.22
2024-02-13T16:57:45.322Z,96238.72
2024-02-13T17:00:13.133Z,96222.09
2024-02-13T17:02:41.112Z,96249.03
2024-02-13T17:05:13.119Z,96240.31
2024-02-13T17:07:41.264Z,96197.50
2024-02-13T17:10:13.332Z,96245.06
2024-02-13T17:12:41.314Z,96256.16
2024-02-13T17:15:09.329Z,96246.25
2024-02-13T17:17:36.406Z,96245.84
2024-02-13T17:20:05.770Z,96179.28
2024-02-13T17:22:33.033Z,96249.44
2024-02-13T17:24:59.874Z,96161.97
2024-02-13T17:27:26.904Z,96273.81
2024-02-13T17:29:53.665Z,96265.53
2024-02-13T17:32:20.566Z,96176.78
2024-02-13T17:34:47.537Z,96260.88
2024-02-13T17:37:14.311Z,96248.19
2024-02-13T17:39:41.276Z,96241.00
2024-02-13T17:42:10.731Z,96271.19
2024-02-13T17:44:37.648Z,96247.38
2024-02-13T17:47:04.827Z,96274.38
2024-02-13T17:49:31.852Z,96271.97
2024-02-13T17:51:58.573Z,96269.59
2024-02-13T17:54:29.396Z,96234.69
2024-02-13T17:56:56.644Z,96275.13
2024-02-13T17:59:25.187Z,96252.50
2024-02-13T18:01:53.634Z,96248.16
2024-02-13T18:04:22.139Z,96290.94
2024-02-13T18:06:49.537Z,96270.28
2024-02-13T18:09:16.614Z,96289.28
2024-02-13T18:11:43.723Z,96287.69
2024-02-13T18:14:11.105Z,96217.81
2024-02-13T18:16:39.162Z,96295.53
2024-02-13T18:19:07.259Z,96297.50
2024-02-13T18:21:34.555Z,96296.34
2024-02-13T18:24:02.726Z,96312.13
2024-02-13T18:26:30.287Z,96247.44
2024-02-13T18:28:57.226Z,96288.28
2024-02-13T18:31:25.334Z,96283.97
2024-02-13T18:33:52.538Z,96270.88
2024-02-13T18:36:24.903Z,96314.44
2024-02-13T18:38:52.689Z,96254.97
2024-02-13T18:41:19.798Z,96313.28
2024-02-13T18:43:49.832Z,96310.50
2024-02-13T18:46:17.179Z,96313.63
2024-02-13T18:48:46.660Z,96318.38
2024-02-13T18:51:17.901Z,96328.66
2024-02-13T18:53:46.562Z,96328.25
2024-02-13T18:56:13.623Z,96344.09
2024-02-13T18:58:40.568Z,96253.84
2024-02-13T19:01:09.989Z,96332.50
2024-02-13T19:03:37.689Z,96305.53
2024-02-13T19:06:09.020Z,96331.28
2024-02-13T19:08:38.252Z,96334.91
2024-02-13T19:11:08.256Z,96346.78
2024-02-13T19:13:35.116Z,95876.91
2024-02-13T19:16:02.212Z,96302.84
2024-02-13T19:18:34.350Z,96342.91
2024-02-13T19:21:01.783Z,96345.69
2024-02-13T19:23:28.922Z,96337.44
2024-02-13T19:25:55.884Z,96348.47
2024-02-13T19:28:24.578Z,96351.25
2024-02-13T19:30:53.541Z,96338.97
2024-02-13T19:33:22.717Z,96288.97
2024-02-13T19:35:54.209Z,96354.03
2024-02-13T19:38:21.696Z,96342.09
2024-02-13T19:40:48.833Z,96259.13
2024-02-13T19:43:15.886Z,96346.84
2024-02-13T19:45:48.113Z,96347.59
2024-02-13T19:48:16.406Z,96362.63
2024-02-13T19:50:43.445Z,96294.34
2024-02-13T19:53:12.680Z,96365.81
2024-02-13T19:55:40.096Z,96333.28
2024-02-13T19:58:07.773Z,96351.09
2024-02-13T20:00:37.493Z,96358.63
2024-02-13T20:03:06.032Z,96374.13
2024-02-13T20:05:33.314Z,96269.91
2024-02-13T20:08:00.356Z,96336.94
2024-02-13T20:10:28.083Z,96367.16
2024-02-13T20:12:56.663Z,96348.88
2024-02-13T20:15:25.913Z,96370.38
2024-02-13T20:17:53.174Z,96362.28
2024-02-13T20:20:20.750Z,96369.19
2024-02-13T20:22:48.935Z,96369.78
2024-02-13T20:25:16.223Z,96371.00
2024-02-13T20:27:46.665Z,96347.16
2024-02-13T20:30:18.495Z,96272.56
2024-02-13T20:32:48.019Z,96445.28
2024-02-13T20:35:15.412Z,96351.19
2024-02-13T20:37:44.009Z,96373.41
2024-02-13T20:40:13.111Z,96367.88
2024-02-13T20:42:46.876Z,96379.75
2024-02-13T20:45:21.435Z,96373.09
2024-02-13T20:47:50.960Z,96375.03
2024-02-13T20:50:21.320Z,96377.41
2024-02-13T20:52:48.180Z,96352.72
2024-02-13T20:55:17.137Z,96379.88
2024-02-13T20:57:44.944Z,96378.28
2024-02-13T21:00:15.650Z,96379.91
2024-02-13T21:02:43.955Z,96390.97
2024-02-13T21:05:11.798Z,96306.66
2024-02-13T21:07:38.784Z,96309.50
2024-02-13T21:10:08.695Z,96336.84
2024-02-13T21:12:36.395Z,96390.09
2024-02-13T21:15:03.449Z,96403.16
2024-02-13T21:17:30.596Z,96394.09
2024-02-13T21:19:57.822Z,96375.41
2024-02-13T21:22:43.431Z,96352.00
2024-02-13T21:25:10.719Z,96336.31
2024-02-13T21:27:37.686Z,96354.97
2024-02-13T21:30:05.652Z,96294.59
2024-02-13T21:32:32.817Z,96353.75
2024-02-13T21:34:59.881Z,96413.38
2024-02-13T21:37:26.717Z,96390.03
2024-02-13T21:39:53.566Z,96415.47
2024-02-13T21:42:20.466Z,96412.22
2024-02-13T21:44:47.477Z,96413.84
2024-02-13T21:47:14.389Z,96416.06
2024-02-13T21:49:41.298Z,96342.13
2024-02-13T21:52:08.163Z,96375.78
2024-02-13T21:54:36.196Z,96416.72
2024-02-13T21:57:05.334Z,96420.63
2024-02-13T21:59:32.251Z,96413.53
2024-02-13T22:01:59.191Z,96445.13
2024-02-13T22:04:26.029Z,96422.66
2024-02-13T22:06:52.744Z,96418.38
2024-02-13T22:09:19.596Z,96417.56
2024-02-13T22:11:46.496Z,96415.94
2024-02-13T22:14:13.225Z,96419.94
2024-02-13T22:16:39.939Z,96423.09
2024-02-13T22:19:06.981Z,96419.81
2024-02-13T22:21:34.102Z,96361.00
2024-02-13T22:24:02.681Z,96424.53
2024-02-13T22:26:29.606Z,96425.78
2024-02-13T22:28:57.691Z,96429.31
2024-02-13T22:31:25.169Z,96432.50
2024-02-13T22:33:52.099Z,96424.53
2024-02-13T22:36:25.133Z,96435.59
2024-02-13T22:38:53.294Z,96336.84
2024-02-13T22:41:22.320Z,96417.84
2024-02-13T22:43:49.116Z,96446.88
2024-02-13T22:46:15.807Z,96445.59
2024-02-13T22:48:42.665Z,96443.81
2024-02-13T22:51:09.585Z,96448.03
2024-02-13T22:53:36.361Z,96447.28
2024-02-13T22:56:03.557Z,96452.59
2024-02-13T22:58:30.320Z,96448.69
2024-02-13T23:01:00.320Z,96354.34
2024-02-13T23:03:28.585Z,96384.56
2024-02-13T23:05:57.099Z,96451.66
2024-02-13T23:08:25.976Z,96429.00
2024-02-13T23:10:52.923Z,96454.53
2024-02-13T23:13:24.800Z,96449.75
2024-02-13T23:15:53.176Z,96460.88
2024-02-13T23:18:20.149Z,96438.28
2024-02-13T23:20:47.347Z,96425.53
2024-02-13T23:23:14.349Z,96448.56
2024-02-13T23:25:41.033Z,96449.06
2024-02-13T23:28:13.739Z,96432.44
2024-02-13T23:30:44.429Z,96446.31
2024-02-13T23:33:12.194Z,96391.72
2024-02-13T23:35:39.178Z,96429.91
2024-02-13T23:38:11.184Z,96458.13
2024-02-13T23:40:38.088Z,96456.09
2024-02-13T23:43:07.206Z,96399.13
2024-02-13T23:45:34.424Z,96463.97
2024-02-13T23:48:01.917Z,96480.16
2024-02-13T23:50:28.918Z,96462.44
2024-02-13T23:52:56.862Z,96445.91
2024-02-13T23:55:26.428Z,96544.44
2024-02-13T23:57:53.210Z,96438.59
